Time;durP1;ratioP1;P1;durP2;ratioP2;P2;SDS_P1;SDS_P2;PMS_P1;PMS_P2;Temp;Humidity;BMP_temperature;BMP_pressure;BME280_temperature;BME280_humidity;BME280_pressure;Samples;Min_cycle;Max_cycle;Signal;HPM_P1;HPM_P2
2022/02/06 00:02:27;;;;;;;10.00;1.02;;;;;;;3.52;64.36;100391.78;5024654;28;20045;-74
2022/02/06 00:04:52;;;;;;;7.18;0.95;;;;;;;3.58;64.01;100373.53;5026523;28;20078;-75
2022/02/06 00:07:18;;;;;;;2.20;0.85;;;;;;;3.36;64.64;100373.13;5009554;28;20053;-74
2022/02/06 00:09:45;;;;;;;9.93;1.30;;;;;;;3.51;64.31;100371.97;5027165;28;20029;-74
2022/02/06 00:12:12;;;;;;;7.45;1.25;;;;;;;3.65;63.97;100356.19;5025799;28;20036;-75
2022/02/06 00:14:38;;;;;;;8.52;0.75;;;;;;;3.78;63.39;100358.53;5008075;28;20045;-75
2022/02/06 00:17:04;;;;;;;6.60;1.10;;;;;;;3.12;65.00;100351.97;5005935;28;20108;-76
2022/02/06 00:19:30;;;;;;;5.00;0.88;;;;;;;3.56;64.44;100349.47;5013508;28;20052;-77
2022/02/06 00:21:56;;;;;;;10.68;1.73;;;;;;;3.75;63.45;100342.22;5010937;28;20569;-74
2022/02/06 00:24:32;;;;;;;5.97;1.17;;;;;;;3.50;64.56;100347.03;5010612;28;20091;-74
2022/02/06 00:27:04;;;;;;;8.93;1.63;;;;;;;3.06;66.20;100331.41;5020327;28;20025;-75
2022/02/06 00:29:42;;;;;;;9.70;1.33;;;;;;;3.53;64.84;100321.94;5023879;28;20524;-73
2022/02/06 00:32:14;;;;;;;8.98;1.10;;;;;;;3.24;65.44;100332.81;5012141;28;20115;-74
2022/02/06 00:40:17;;;;;;;7.75;1.40;;;;;;;3.83;64.13;100319.66;5008040;28;20036;-76
2022/02/06 00:42:43;;;;;;;7.95;1.60;;;;;;;3.85;63.77;100307.56;5008664;28;20042;-76
2022/02/06 00:45:09;;;;;;;7.75;1.40;;;;;;;3.80;64.27;100304.19;4999712;28;20034;-76
2022/02/06 00:47:36;;;;;;;10.70;1.70;;;;;;;3.62;65.04;100286.47;5007068;28;20045;-75
2022/02/06 00:50:02;;;;;;;12.40;1.85;;;;;;;3.80;63.99;100304.19;5024633;28;20030;-76
2022/02/06 00:52:35;;;;;;;16.20;1.35;;;;;;;3.48;65.29;100297.09;5001593;28;20048;-75
2022/02/06 00:55:01;;;;;;;10.93;2.10;;;;;;;3.68;64.79;100278.63;5042999;28;20039;-76
2022/02/06 00:57:27;;;;;;;14.95;1.27;;;;;;;3.77;64.22;100288.75;5011787;28;20462;-76
2022/02/06 00:59:52;;;;;;;9.70;1.58;;;;;;;3.85;64.06;100266.19;5026055;28;20029;-75
2022/02/06 01:02:18;;;;;;;14.80;1.98;;;;;;;3.75;64.52;100286.19;5008034;28;20509;-75
2022/02/06 01:04:43;;;;;;;11.88;1.95;;;;;;;3.68;64.59;100274.28;5015223;28;20045;-75
2022/02/06 01:07:09;;;;;;;9.88;1.88;;;;;;;3.83;64.52;100260.19;5022760;28;20064;-75
2022/02/06 01:09:34;;;;;;;14.93;2.38;;;;;;;3.38;65.45;100270.56;4998179;28;20053;-76
2022/02/06 01:12:00;;;;;;;8.13;1.50;;;;;;;3.64;64.40;100261.47;5021417;28;20029;-75
2022/02/06 01:17:07;;;;;;;8.88;1.13;;;;;;;4.06;63.42;100254.50;5005377;28;20037;-75
2022/02/06 01:19:47;;;;;;;17.63;1.30;;;;;;;3.62;65.06;100250.31;5021057;28;20044;-74
2022/02/06 01:22:18;;;;;;;13.32;1.83;;;;;;;3.84;64.17;100238.63;4988917;28;20399;-76
2022/02/06 01:24:58;;;;;;;9.88;1.30;;;;;;;4.22;62.88;100229.97;5008973;28;20038;-75
2022/02/06 01:27:34;;;;;;;12.63;1.05;;;;;;;3.97;63.22;100214.19;5007047;28;20398;-75
2022/02/06 01:30:11;;;;;;;9.70;1.77;;;;;;;3.90;64.23;100216.97;5006238;28;20040;-73
2022/02/06 01:32:44;;;;;;;14.30;2.72;;;;;;;3.45;65.05;100233.44;4995231;28;20125;-74
2022/02/06 01:35:15;;;;;;;17.15;2.88;;;;;;;3.98;63.56;100221.06;5009564;28;20692;-72
2022/02/06 01:37:55;;;;;;;13.13;2.08;;;;;;;4.26;63.14;100215.22;5025244;28;20061;-74
2022/02/06 01:43:03;;;;;;;15.90;2.00;;;;;;;3.84;64.22;100202.41;5016215;28;20045;-73
2022/02/06 01:45:40;;;;;;;14.07;1.70;;;;;;;3.80;64.28;100186.13;4991025;28;20539;-73
2022/02/06 02:42:59;;;;;;;10.43;1.10;;;;;;;4.10;63.28;100111.31;5005184;28;20564;-74
2022/02/06 02:47:18;;;;;;;14.40;2.72;;;;;;;3.92;63.78;100091.09;5004677;28;20107;-73
2022/02/06 02:49:57;;;;;;;13.32;1.73;;;;;;;3.85;64.43;100120.53;5024253;28;20034;-74
2022/02/06 02:55:13;;;;;;;14.45;1.75;;;;;;;3.89;64.60;100060.97;5008489;28;20030;-74
2022/02/06 02:57:47;;;;;;;12.63;2.33;;;;;;;4.18;63.51;100062.78;5005055;28;20461;-74
2022/02/06 03:02:45;;;;;;;16.75;2.45;;;;;;;4.30;62.94;100046.13;5019587;28;20044;-76
2022/02/06 03:05:10;;;;;;;19.58;2.17;;;;;;;3.85;63.81;100048.16;5007299;28;20064;-76
2022/02/06 03:07:36;;;;;;;13.43;1.73;;;;;;;3.83;64.20;100058.56;5009526;28;20056;-75
2022/02/06 03:10:02;;;;;;;13.48;2.33;;;;;;;3.77;64.58;100040.59;5008853;28;20037;-76
2022/02/06 03:12:30;;;;;;;23.25;2.28;;;;;;;3.73;64.86;100041.56;5013443;28;20052;-74
2022/02/06 03:15:05;;;;;;;20.05;0.85;;;;;;;3.91;64.37;100053.19;5015651;28;20044;-76
2022/02/06 03:17:36;;;;;;;6.07;1.20;;;;;;;3.90;64.62;100041.16;5011907;28;20131;-76
2022/02/06 03:20:09;;;;;;;14.45;1.60;;;;;;;4.49;62.48;100040.44;5028234;28;20624;-75
2022/02/06 03:22:47;;;;;;;15.68;1.42;;;;;;;4.19;63.40;100032.63;5021480;28;20510;-75
2022/02/06 03:25:18;;;;;;;18.15;2.58;;;;;;;4.42;62.67;100040.59;5008173;28;20033;-75
2022/02/06 03:27:44;;;;;;;8.55;1.45;;;;;;;4.01;64.53;100028.78;5007634;28;20111;-76
2022/02/06 03:30:10;;;;;;;17.83;1.98;;;;;;;4.25;63.17;100029.00;5022802;28;20042;-76
2022/02/06 03:32:35;;;;;;;12.63;1.88;;;;;;;3.78;64.55;100011.28;5011478;28;20145;-76
2022/02/06 03:35:01;;;;;;;16.55;2.30;;;;;;;4.20;63.00;100027.41;5015995;28;20556;-75
2022/02/06 03:37:26;;;;;;;13.30;1.40;;;;;;;4.24;63.20;100029.91;5012861;28;20033;-76
2022/02/06 03:39:54;;;;;;;13.90;1.65;;;;;;;4.49;62.24;100030.09;5006600;28;20030;-76
2022/02/06 03:42:22;;;;;;;19.52;1.95;;;;;;;3.77;64.60;100022.50;5016466;28;20033;-76
2022/02/06 03:44:51;;;;;;;14.43;2.53;;;;;;;3.81;63.66;100008.63;5013826;28;20033;-75
2022/02/06 03:47:20;;;;;;;20.52;1.48;;;;;;;4.54;61.96;100023.03;5007209;28;20403;-75
2022/02/06 03:52:21;;;;;;;15.82;1.58;;;;;;;4.08;63.59;100006.22;5005276;28;20061;-74
2022/02/06 03:54:46;;;;;;;18.17;2.28;;;;;;;3.94;63.98;100012.59;5006514;28;20037;-75
2022/02/06 03:57:12;;;;;;;16.30;2.05;;;;;;;4.25;63.39;100016.09;5019750;28;20045;-74
2022/02/06 03:59:37;;;;;;;11.52;1.70;;;;;;;4.85;60.94;100007.44;5008970;28;20045;-73
2022/02/06 04:02:04;;;;;;;11.35;1.95;;;;;;;4.91;61.01;100011.66;5006670;28;20769;-73
2022/02/06 04:04:30;;;;;;;24.38;2.17;;;;;;;4.32;63.01;99999.50;5026041;28;20064;-74
2022/02/06 04:07:04;;;;;;;15.27;1.23;;;;;;;4.12;63.57;100013.84;5040174;28;20057;-74
2022/02/06 04:09:35;;;;;;;16.33;1.85;;;;;;;4.09;64.31;100010.47;5007636;28;20041;-73
2022/02/06 04:12:03;;;;;;;11.27;1.77;;;;;;;4.36;63.46;100006.28;5005122;28;20065;-75
2022/02/06 04:14:31;;;;;;;6.43;1.10;;;;;;;4.29;63.43;100000.44;5006872;28;20083;-75
2022/02/06 04:17:08;;;;;;;12.55;1.00;;;;;;;4.07;64.27;100004.50;5004340;28;20117;-73
2022/02/06 04:19:33;;;;;;;11.27;1.05;;;;;;;4.51;63.27;100007.59;4992917;28;20573;-71
2022/02/06 04:21:59;;;;;;;8.05;1.13;;;;;;;4.39;62.97;99999.28;5002404;28;20768;-72
2022/02/06 04:24:25;;;;;;;5.55;1.17;;;;;;;4.64;62.73;100008.94;5003274;28;20574;-74
2022/02/06 04:26:53;;;;;;;8.82;0.70;;;;;;;4.24;63.73;99993.72;5002350;28;21847;-72
2022/02/06 04:29:19;;;;;;;8.10;1.08;;;;;;;4.37;63.13;99998.50;5026679;28;20095;-72
2022/02/06 04:31:48;;;;;;;15.07;1.80;;;;;;;3.83;64.39;99996.50;5021283;28;20041;-71
2022/02/06 04:34:21;;;;;;;13.32;1.30;;;;;;;4.21;63.80;99992.06;5022149;28;20042;-71
2022/02/06 04:41:59;;;;;;;16.50;1.48;;;;;;;4.41;63.03;99981.16;5023426;28;20036;-74
2022/02/06 05:14:21;;;;;;;4.78;0.30;;;;;;;4.86;60.53;99957.38;5036208;28;20041;-76
2022/02/06 05:27:16;;;;;;;0.70;0.00;;;;;;;3.51;59.87;99927.56;5019871;28;20037;-74
2022/02/06 05:32:36;;;;;;;4.15;0.25;;;;;;;3.55;61.24;99926.59;5023285;28;20037;-75
2022/02/06 05:35:05;;;;;;;7.60;0.35;;;;;;;3.62;62.56;99914.34;5023408;28;20037;-74
2022/02/06 05:37:31;;;;;;;11.07;0.43;;;;;;;3.93;61.75;99916.97;5022636;28;20053;-71
2022/02/06 05:39:56;;;;;;;1.60;0.35;;;;;;;3.86;62.43;99908.53;5024191;28;20037;-72
2022/02/06 05:42:22;;;;;;;3.60;0.43;;;;;;;3.59;63.19;99900.63;5017895;28;20527;-73
2022/02/06 05:44:54;;;;;;;8.43;0.80;;;;;;;4.31;61.25;99908.09;5024321;28;20040;-72
2022/02/06 05:47:20;;;;;;;10.07;0.45;;;;;;;4.32;60.64;99920.16;5025291;28;20502;-75
2022/02/06 05:49:45;;;;;;;4.88;0.52;;;;;;;4.36;60.37;99906.25;5029432;28;20506;-76
2022/02/06 05:52:12;;;;;;;8.50;0.40;;;;;;;3.99;60.35;99899.53;5023836;28;20128;-74
2022/02/06 05:54:38;;;;;;;9.82;1.33;;;;;;;3.79;60.97;99894.09;5023865;28;20033;-74
2022/02/06 05:57:04;;;;;;;7.03;0.30;;;;;;;4.07;60.29;99903.66;5037813;28;20059;-74
2022/02/06 05:59:30;;;;;;;6.15;0.52;;;;;;;3.92;60.17;99890.28;5038779;28;20053;-74
2022/02/06 06:01:55;;;;;;;5.57;0.75;;;;;;;3.31;61.16;99891.91;5023277;28;20041;-74
2022/02/06 06:04:21;;;;;;;3.00;0.25;;;;;;;3.62;61.37;99896.28;5027338;28;20068;-75
2022/02/06 06:06:47;;;;;;;7.00;0.20;;;;;;;3.50;61.33;99892.28;5029224;28;20087;-74
2022/02/06 06:09:12;;;;;;;3.15;0.10;;;;;;;2.99;62.33;99890.94;5029370;28;20041;-74
2022/02/06 06:11:38;;;;;;;1.13;0.03;;;;;;;3.11;61.99;99880.34;5023200;28;20033;-73
2022/02/06 06:14:04;;;;;;;2.35;0.10;;;;;;;3.22;61.51;99892.94;5021882;28;20063;-74
2022/02/06 06:16:32;;;;;;;2.63;0.10;;;;;;;3.55;60.52;99890.41;5026596;28;20218;-73
2022/02/06 06:18:58;;;;;;;1.98;0.32;;;;;;;3.27;60.86;99896.28;5023067;28;20774;-73
2022/02/06 06:21:25;;;;;;;0.80;0.10;;;;;;;3.75;59.94;99879.53;5022310;28;20033;-74
2022/02/06 06:23:53;;;;;;;4.78;0.00;;;;;;;3.19;61.22;99886.13;5020319;28;20045;-74
2022/02/06 06:26:21;;;;;;;3.90;0.00;;;;;;;3.53;60.46;99872.38;5030596;28;20502;-73
2022/02/06 06:28:46;;;;;;;2.53;0.00;;;;;;;3.41;60.50;99856.38;5028011;28;20041;-74
2022/02/06 06:31:11;;;;;;;1.65;0.00;;;;;;;3.43;61.15;99854.59;5022847;28;20025;-74
2022/02/06 06:33:37;;;;;;;2.08;0.08;;;;;;;3.03;61.96;99868.50;5038432;28;20049;-75
2022/02/06 06:36:04;;;;;;;3.30;0.10;;;;;;;3.21;61.28;99855.09;5041816;28;20148;-75
2022/02/06 06:38:32;;;;;;;2.67;0.00;;;;;;;3.54;60.39;99853.41;5024822;28;20046;-74
2022/02/06 06:40:58;;;;;;;6.30;0.10;;;;;;;3.65;60.36;99854.84;5025009;28;20603;-74
2022/02/06 06:43:23;;;;;;;1.27;0.10;;;;;;;3.43;60.54;99846.84;5022131;28;20029;-74
2022/02/06 06:45:48;;;;;;;0.65;0.00;;;;;;;3.65;60.06;99860.00;5028042;28;20474;-71
2022/02/06 06:48:14;;;;;;;1.92;0.43;;;;;;;3.17;61.05;99851.75;5021473;28;20033;-71
2022/02/06 06:50:39;;;;;;;1.95;0.13;;;;;;;3.85;59.39;99860.31;5027802;28;20425;-72
2022/02/06 06:53:08;;;;;;;3.55;0.10;;;;;;;4.24;58.25;99862.63;5022510;28;20069;-72
2022/02/06 06:55:35;;;;;;;3.42;0.10;;;;;;;3.96;58.88;99858.28;5017326;28;20040;-72
2022/02/06 06:58:27;;;;;;;3.10;0.08;;;;;;;3.54;60.10;99862.91;5027559;28;20048;-74
2022/02/06 07:03:31;;;;;;;4.07;0.20;;;;;;;3.76;59.94;99847.63;5016597;28;20063;-74
2022/02/06 07:05:58;;;;;;;4.07;0.15;;;;;;;3.79;59.75;99843.22;5038444;28;20045;-74
2022/02/06 07:08:24;;;;;;;1.75;0.10;;;;;;;3.76;59.75;99847.63;5022645;28;20087;-76
2022/02/06 07:10:50;;;;;;;3.10;0.30;;;;;;;3.71;59.99;99850.34;5027603;28;20096;-75
2022/02/06 07:13:21;;;;;;;4.68;0.38;;;;;;;3.74;59.68;99849.44;5007370;28;20064;-74
2022/02/06 07:15:47;;;;;;;3.53;0.10;;;;;;;4.04;58.77;99842.53;5031902;28;20033;-74
2022/02/06 07:18:13;;;;;;;7.78;0.22;;;;;;;3.95;59.23;99835.88;5017056;28;20125;-75
2022/02/06 07:20:38;;;;;;;8.82;0.52;;;;;;;4.03;59.25;99825.34;5007514;28;20465;-75
2022/02/06 07:23:06;;;;;;;1.48;0.10;;;;;;;4.11;58.98;99828.50;5013272;28;20041;-75
2022/02/06 07:25:32;;;;;;;4.65;0.28;;;;;;;4.08;58.64;99831.19;5020785;28;20030;-74
2022/02/06 07:27:57;;;;;;;4.68;0.32;;;;;;;4.37;58.31;99817.38;5014677;28;20048;-74
2022/02/06 07:30:23;;;;;;;4.25;0.82;;;;;;;4.16;58.66;99818.91;4995498;28;20034;-73
2022/02/06 07:32:49;;;;;;;1.20;0.10;;;;;;;3.71;60.41;99814.16;5004178;28;20844;-73
2022/02/06 07:35:15;;;;;;;1.05;0.10;;;;;;;4.11;59.26;99812.16;5001872;28;20017;-75
2022/02/06 07:37:51;;;;;;;6.13;0.20;;;;;;;3.90;59.98;99804.16;5011300;28;20525;-75
2022/02/06 07:40:18;;;;;;;3.10;0.20;;;;;;;3.89;60.11;99797.28;5006898;28;20048;-75
2022/02/06 07:42:43;;;;;;;2.60;0.15;;;;;;;3.47;61.67;99795.06;5016756;28;20037;-76
2022/02/06 07:45:15;;;;;;;4.60;0.10;;;;;;;3.98;60.27;99796.16;5026216;28;20033;-75
2022/02/06 07:47:43;;;;;;;4.53;0.10;;;;;;;3.38;62.07;99795.28;5026163;28;20522;-74
2022/02/06 07:50:11;;;;;;;1.45;0.10;;;;;;;4.01;60.28;99794.34;5024611;28;20498;-74
2022/02/06 07:52:37;;;;;;;1.23;0.08;;;;;;;3.19;62.79;99782.84;5038901;28;20298;-74
2022/02/06 07:55:04;;;;;;;0.28;0.10;;;;;;;3.85;60.64;99785.34;5032388;28;20120;-74
2022/02/06 07:57:30;;;;;;;5.35;0.10;;;;;;;4.02;60.11;99784.84;5021229;28;20042;-74
2022/02/06 07:59:55;;;;;;;2.10;0.10;;;;;;;4.10;59.82;99769.09;5007984;28;20985;-75
2022/02/06 08:02:21;;;;;;;5.35;0.60;;;;;;;3.33;61.92;99764.41;5010260;28;20112;-74
2022/02/06 08:04:48;;;;;;;4.90;0.32;;;;;;;3.44;61.96;99761.53;5032708;28;20732;-74
2022/02/06 08:07:14;;;;;;;0.70;0.22;;;;;;;4.20;59.26;99739.47;5023257;28;20119;-75
2022/02/06 08:12:13;;;;;;;2.70;0.50;;;;;;;3.89;60.45;99732.66;5004794;28;20215;-74
2022/02/06 08:14:59;;;;;;;3.53;0.32;;;;;;;3.99;59.46;99733.22;5007537;28;20052;-73
2022/02/06 08:17:27;;;;;;;2.63;0.82;;;;;;;4.01;59.50;99703.00;5006554;28;20069;-74
2022/02/06 08:19:54;;;;;;;3.00;0.10;;;;;;;4.04;59.49;99694.31;5003548;28;20038;-74
2022/02/06 08:22:20;;;;;;;7.18;0.38;;;;;;;4.47;58.17;99685.13;4986544;28;20052;-76
2022/02/06 08:24:47;;;;;;;3.72;0.47;;;;;;;4.43;57.97;99676.63;5020347;28;21019;-75
2022/02/06 08:27:13;;;;;;;4.05;0.30;;;;;;;4.43;58.27;99674.91;5003906;28;20042;-75
2022/02/06 08:29:41;;;;;;;5.22;0.32;;;;;;;4.43;58.40;99674.91;5004393;28;20682;-74
2022/02/06 08:32:07;;;;;;;5.28;0.20;;;;;;;3.94;59.72;99668.75;5003503;28;20030;-75
2022/02/06 08:34:33;;;;;;;0.95;0.17;;;;;;;3.77;60.40;99673.59;5000836;28;20033;-74
2022/02/06 08:37:02;;;;;;;6.53;0.63;;;;;;;3.97;60.07;99665.22;5000630;28;20033;-74
2022/02/06 08:39:28;;;;;;;6.25;0.55;;;;;;;4.09;59.86;99653.63;4994542;28;20129;-74
2022/02/06 08:41:53;;;;;;;3.03;0.25;;;;;;;4.19;59.35;99644.69;5000580;28;20550;-74
2022/02/06 08:44:20;;;;;;;2.72;0.15;;;;;;;3.85;60.31;99653.53;5002616;28;20414;-74
2022/02/06 08:46:46;;;;;;;5.97;0.47;;;;;;;3.89;60.25;99641.34;4995848;28;20438;-75
2022/02/06 08:49:12;;;;;;;0.80;0.52;;;;;;;4.20;59.30;99633.41;5007791;28;20034;-75
2022/02/06 08:51:37;;;;;;;2.13;0.20;;;;;;;4.26;59.35;99603.94;5003597;28;20403;-74
2022/02/06 08:54:03;;;;;;;4.88;0.15;;;;;;;4.43;58.62;99604.16;5009539;28;20129;-74
2022/02/06 08:56:30;;;;;;;1.67;0.15;;;;;;;4.62;58.04;99601.78;5003464;28;20101;-74
2022/02/06 08:58:56;;;;;;;1.00;0.38;;;;;;;4.52;58.11;99611.63;5000875;28;20578;-75
2022/02/06 09:01:21;;;;;;;3.85;0.40;;;;;;;4.69;57.49;99607.59;5018181;28;20034;-74
2022/02/06 09:03:48;;;;;;;3.85;0.82;;;;;;;4.72;57.59;99602.31;5001198;28;20153;-75
2022/02/06 09:06:15;;;;;;;2.92;0.20;;;;;;;4.73;57.31;99614.38;4999440;28;20037;-74
2022/02/06 09:08:41;;;;;;;2.03;0.10;;;;;;;3.68;59.82;99615.28;4991054;28;21232;-75
2022/02/06 09:11:07;;;;;;;0.98;0.28;;;;;;;3.50;59.73;99603.78;4985624;28;20140;-75
2022/02/06 09:13:32;;;;;;;1.88;0.32;;;;;;;3.64;59.45;99602.50;5028439;28;20813;-75
2022/02/06 09:15:58;;;;;;;1.52;0.28;;;;;;;3.79;58.90;99600.28;5024489;28;20025;-75
2022/02/06 09:18:23;;;;;;;0.73;0.15;;;;;;;3.69;59.11;99592.84;5009219;28;20541;-76
2022/02/06 09:20:49;;;;;;;1.15;0.10;;;;;;;4.06;58.34;99579.59;4993693;28;20414;-74
2022/02/06 09:23:15;;;;;;;0.20;0.00;;;;;;;3.89;58.61;99574.97;4999392;28;20030;-75
2022/02/06 09:25:40;;;;;;;2.25;0.40;;;;;;;3.83;59.13;99576.91;4999005;28;20037;-76
2022/02/06 09:28:06;;;;;;;4.30;1.20;;;;;;;4.05;58.14;99577.03;5008285;28;20045;-75
2022/02/06 09:30:31;;;;;;;1.70;0.30;;;;;;;3.95;58.53;99564.41;4996975;28;20037;-75
2022/02/06 09:35:23;;;;;;;2.72;0.20;;;;;;;4.01;58.63;99538.38;5019700;28;20223;-74
2022/02/06 09:37:50;;;;;;;2.55;0.50;;;;;;;4.08;58.50;99533.00;5010259;28;20064;-75
2022/02/06 09:40:16;;;;;;;5.60;0.88;;;;;;;4.21;58.12;99524.75;4990148;28;20047;-75
2022/02/06 09:42:44;;;;;;;1.30;0.15;;;;;;;4.19;57.85;99530.88;5002041;28;20140;-74
2022/02/06 09:45:11;;;;;;;1.55;0.17;;;;;;;4.26;57.80;99531.50;4999254;28;20038;-75
2022/02/06 09:47:37;;;;;;;4.35;0.10;;;;;;;4.46;57.32;99525.63;5003596;28;20327;-75
2022/02/06 09:50:04;;;;;;;1.10;0.10;;;;;;;4.34;57.21;99519.13;5018253;28;20025;-75
2022/02/06 09:52:29;;;;;;;0.47;0.20;;;;;;;4.51;57.31;99505.59;5016001;28;20165;-75
2022/02/06 09:54:57;;;;;;;0.30;0.10;;;;;;;4.60;57.00;99497.50;4989977;28;20037;-74
2022/02/06 09:57:49;;;;;;;2.17;0.10;;;;;;;4.60;56.73;99494.91;4985282;28;20457;-75
2022/02/06 10:00:11;;;;;;;0.30;0.10;;;;;;;4.69;56.77;99506.66;5020888;28;20064;-75
2022/02/06 10:02:38;;;;;;;1.10;0.20;;;;;;;4.54;57.22;99510.66;5012855;28;20414;-75
2022/02/06 10:05:06;;;;;;;4.20;0.10;;;;;;;4.35;57.33;99515.66;5014057;28;20079;-75
2022/02/06 10:08:11;;;;;;;1.38;0.20;;;;;;;4.24;58.15;99497.94;4990077;28;20052;-75
2022/02/06 10:10:40;;;;;;;1.55;0.10;;;;;;;4.39;57.22;99479.28;5011306;28;20053;-74
2022/02/06 10:13:05;;;;;;;3.15;0.20;;;;;;;4.20;57.55;99465.31;5002404;28;20134;-74
2022/02/06 10:15:32;;;;;;;1.98;0.28;;;;;;;4.51;57.24;99453.84;4986722;28;20046;-74
2022/02/06 10:17:57;;;;;;;0.93;0.30;;;;;;;4.57;56.87;99448.44;5007652;28;20531;-75
2022/02/06 10:20:29;;;;;;;3.03;0.30;;;;;;;4.55;57.14;99455.44;4990539;28;20033;-73
2022/02/06 10:22:58;;;;;;;6.78;2.45;;;;;;;4.54;57.01;99448.53;5014315;28;20120;-74
2022/02/06 10:25:23;;;;;;;3.33;1.50;;;;;;;4.60;56.86;99451.75;5002366;28;20099;-73
2022/02/06 10:28:22;;;;;;;2.30;1.02;;;;;;;4.64;56.94;99439.53;5001665;28;20489;-74
2022/02/06 10:30:52;;;;;;;2.97;1.02;;;;;;;4.55;57.20;99445.06;5015048;28;20049;-75
2022/02/06 10:33:21;;;;;;;3.25;0.30;;;;;;;4.20;57.79;99442.03;5005527;28;20555;-75
2022/02/06 10:35:53;;;;;;;2.72;0.30;;;;;;;4.40;57.29;99436.13;4998381;28;20490;-75
2022/02/06 10:38:23;;;;;;;;;;;;;;;3.56;58.81;99438.25;4999504;28;20549;-74
2022/02/06 10:41:13;;;;;;;0.35;0.00;;;;;;;3.32;58.37;99431.31;5000741;28;19921;-75
2022/02/06 10:43:54;;;;;;;2.47;0.20;;;;;;;3.32;58.83;99408.06;5002841;28;20045;-74
2022/02/06 10:46:20;;;;;;;1.48;0.10;;;;;;;3.47;57.75;99415.31;5001368;28;20502;-74
2022/02/06 10:48:46;;;;;;;2.47;0.20;;;;;;;3.31;58.63;99407.19;4998769;28;20502;-75
2022/02/06 10:52:00;;;;;;;2.55;0.10;;;;;;;3.15;58.95;99408.59;5000889;28;20041;-74
2022/02/06 10:54:35;;;;;;;1.45;0.20;;;;;;;3.23;58.83;99405.75;4991279;28;20046;-73
2022/02/06 10:57:04;;;;;;;2.10;0.17;;;;;;;3.36;58.45;99396.75;5004090;28;20037;-75
2022/02/06 10:59:42;;;;;;;1.77;0.10;;;;;;;2.56;59.36;99394.09;5003214;28;20052;-75
2022/02/06 11:02:17;;;;;;;2.22;0.10;;;;;;;2.86;58.73;99387.13;5002632;28;20037;-74
2022/02/06 11:05:13;;;;;;;2.83;0.20;;;;;;;3.05;58.41;99384.81;5004126;28;20038;-75
2022/02/06 11:07:38;;;;;;;0.40;0.10;;;;;;;3.24;58.17;99377.28;5003251;28;20150;-75
2022/02/06 11:10:06;;;;;;;1.65;0.10;;;;;;;2.84;58.95;99360.53;5003647;28;20538;-75
2022/02/06 11:12:32;;;;;;;1.60;0.10;;;;;;;3.08;57.93;99353.72;4999884;28;20052;-76
2022/02/06 11:15:01;;;;;;;0.50;0.10;;;;;;;3.18;57.48;99355.13;5006131;28;20037;-74
2022/02/06 11:17:30;;;;;;;4.40;0.00;;;;;;;3.24;57.22;99345.47;5003886;28;20042;-74
2022/02/06 11:20:10;;;;;;;1.40;0.10;;;;;;;3.42;56.64;99346.59;5004887;28;20037;-74
2022/02/06 11:22:37;;;;;;;0.30;0.00;;;;;;;3.09;57.48;99345.09;5001300;28;20034;-74
2022/02/06 11:25:05;;;;;;;2.45;0.30;;;;;;;3.06;57.93;99340.03;5005082;28;20612;-74
2022/02/06 11:27:33;;;;;;;3.20;0.28;;;;;;;3.58;56.83;99332.25;5003275;28;20049;-74
2022/02/06 11:29:58;;;;;;;4.20;0.40;;;;;;;3.12;57.92;99329.50;5004494;28;20454;-76
2022/02/06 11:32:26;;;;;;;4.50;0.20;;;;;;;2.99;58.23;99335.97;5002825;28;20048;-74
2022/02/06 11:34:55;;;;;;;3.15;0.10;;;;;;;3.24;58.01;99332.56;5009606;28;20569;-74
2022/02/06 11:46:20;;;;;;;1.55;0.10;;;;;;;2.97;58.43;99278.38;5007484;28;20091;-74
2022/02/06 11:48:47;;;;;;;3.38;0.15;;;;;;;2.98;58.57;99274.94;5005194;28;20061;-74
2022/02/06 11:51:19;;;;;;;6.93;0.75;;;;;;;3.14;58.22;99276.06;5008551;28;20037;-74
2022/02/06 11:53:46;;;;;;;3.85;0.10;;;;;;;2.60;59.80;99265.88;5007269;28;20099;-75
2022/02/06 11:56:23;;;;;;;3.28;0.10;;;;;;;3.17;58.11;99268.22;5002528;28;20037;-74
2022/02/06 11:58:52;;;;;;;1.70;0.00;;;;;;;2.98;58.82;99274.94;4997490;28;20132;-74
2022/02/06 12:01:18;;;;;;;1.08;0.10;;;;;;;3.28;57.66;99272.16;4999555;28;20045;-74
2022/02/06 12:03:57;;;;;;;5.13;0.25;;;;;;;3.22;58.00;99262.88;5003272;28;20041;-74
2022/02/06 12:06:43;;;;;;;0.93;0.10;;;;;;;3.23;58.17;99250.84;5001388;28;20311;-74
2022/02/06 12:09:12;;;;;;;2.88;0.20;;;;;;;2.64;59.85;99255.38;5008738;28;20430;-74
2022/02/06 12:11:37;;;;;;;0.55;0.10;;;;;;;2.98;58.89;99262.03;5004700;28;20049;-74
2022/02/06 12:14:28;;;;;;;0.30;0.00;;;;;;;3.09;58.38;99257.34;4999639;28;20041;-74
2022/02/06 12:17:43;;;;;;;1.90;0.10;;;;;;;3.63;57.52;99251.97;5000372;28;20461;-73
2022/02/06 12:20:13;;;;;;;0.73;0.20;;;;;;;3.54;57.16;99235.94;5020705;28;20577;-73
2022/02/06 12:22:51;;;;;;;1.63;0.10;;;;;;;3.65;56.79;99230.38;5027828;28;20127;-72
2022/02/06 12:25:26;;;;;;;2.95;0.05;;;;;;;3.39;57.73;99226.16;5021944;28;20545;-74
2022/02/06 12:28:20;;;;;;;3.00;0.10;;;;;;;3.64;56.40;99239.00;5013837;28;20099;-74
2022/02/06 12:30:47;;;;;;;3.20;0.35;;;;;;;3.53;56.80;99236.81;4999998;28;20643;-74
2022/02/06 12:33:35;;;;;;;2.38;0.10;;;;;;;3.74;56.32;99245.53;5000574;28;20034;-74
2022/02/06 12:38:45;;;;;;;3.30;0.10;;;;;;;3.77;56.23;99236.81;4998828;28;20041;-74
2022/02/06 12:41:24;;;;;;;4.65;0.10;;;;;;;3.35;56.80;99234.94;5006909;28;20471;-74
2022/02/06 12:43:56;;;;;;;2.60;0.28;;;;;;;3.94;55.28;99236.16;5001326;28;20478;-74
2022/02/06 12:46:26;;;;;;;0.90;0.10;;;;;;;3.93;55.42;99235.31;5004582;28;20036;-74
2022/02/06 12:48:59;;;;;;;2.00;0.28;;;;;;;3.84;55.53;99240.00;5002102;28;20073;-74
2022/02/06 12:51:27;;;;;;;0.22;0.03;;;;;;;3.62;56.15;99242.56;5004569;28;20025;-74
2022/02/06 12:54:10;;;;;;;7.32;0.30;;;;;;;3.53;56.32;99254.91;5001619;28;20411;-73
2022/02/06 12:56:37;;;;;;;2.30;0.30;;;;;;;3.18;57.98;99262.16;5016964;28;20037;-74
2022/02/06 12:59:04;;;;;;;4.13;0.15;;;;;;;3.28;57.81;99278.16;5001970;28;20312;-75
2022/02/06 13:01:40;;;;;;;5.82;0.25;;;;;;;2.77;59.43;99297.94;5004380;28;20041;-74
2022/02/06 13:04:11;;;;;;;2.10;0.35;;;;;;;2.69;59.61;99292.22;5007328;28;20325;-73
2022/02/06 13:06:42;;;;;;;0.82;0.10;;;;;;;2.52;58.50;99284.19;5003246;28;20034;-74
2022/02/06 13:09:32;;;;;;;3.75;0.30;;;;;;;2.59;57.55;99266.78;5003459;28;20041;-74
2022/02/06 13:12:09;;;;;;;6.88;1.27;;;;;;;2.66;56.77;99276.00;5000538;28;20096;-74
2022/02/06 13:18:07;;;;;;;2.92;0.25;;;;;;;2.99;56.43;99261.13;5000938;28;20044;-74
2022/02/06 13:20:51;;;;;;;6.07;0.30;;;;;;;3.06;56.68;99270.31;4999993;28;20522;-74
2022/02/06 13:31:16;;;;;;;6.32;0.20;;;;;;;2.95;58.50;99272.44;5002988;28;20037;-74
2022/02/06 13:33:55;;;;;;;4.95;0.50;;;;;;;2.83;58.42;99265.97;5017824;28;20179;-74
2022/02/06 13:36:36;;;;;;;2.85;0.50;;;;;;;3.44;57.06;99277.66;5024152;28;20136;-74
2022/02/06 13:39:10;;;;;;;8.30;0.60;;;;;;;3.50;56.87;99278.28;5038704;28;20064;-74
2022/02/06 13:41:35;;;;;;;4.45;0.80;;;;;;;3.24;57.06;99280.91;5038880;28;20033;-74
2022/02/06 13:44:03;;;;;;;3.80;0.20;;;;;;;3.37;56.47;99275.28;5009410;28;20049;-74
2022/02/06 13:46:33;;;;;;;3.13;0.25;;;;;;;3.67;55.81;99285.44;5026864;28;20041;-73
2022/02/06 13:48:59;;;;;;;5.78;0.22;;;;;;;3.88;54.50;99280.34;5020800;28;20590;-73
2022/02/06 13:51:28;;;;;;;6.45;0.30;;;;;;;3.40;55.14;99287.25;5015557;28;20029;-73
2022/02/06 13:54:03;;;;;;;3.38;0.30;;;;;;;3.77;54.16;99291.94;5007664;28;20046;-74
2022/02/06 13:56:30;;;;;;;3.70;0.30;;;;;;;3.85;54.35;99289.06;5004584;28;20033;-72
2022/02/06 13:59:03;;;;;;;3.33;0.35;;;;;;;3.74;53.89;99298.97;5001021;28;20044;-72
2022/02/06 14:01:40;;;;;;;4.65;0.75;;;;;;;3.66;54.18;99294.06;5005833;28;20041;-72
2022/02/06 14:04:17;;;;;;;5.07;1.42;;;;;;;3.85;53.71;99298.53;5019314;28;20065;-72
2022/02/06 14:06:48;;;;;;;6.57;0.47;;;;;;;3.95;53.49;99290.41;5009847;28;20071;-71
2022/02/06 14:09:22;;;;;;;8.18;2.85;;;;;;;3.73;54.27;99297.28;5001411;28;20041;-71
2022/02/06 14:12:01;;;;;;;13.05;1.25;;;;;;;3.91;54.08;99304.34;5015572;28;20540;-71
2022/02/06 14:14:28;;;;;;;5.38;0.60;;;;;;;4.15;54.10;99302.56;5002717;28;20049;-72
2022/02/06 14:16:56;;;;;;;5.50;0.60;;;;;;;4.08;54.54;99290.78;4997411;28;20673;-71
2022/02/06 14:19:41;;;;;;;6.30;0.63;;;;;;;4.21;54.38;99291.16;4992508;28;20121;-71
2022/02/06 14:22:07;;;;;;;11.95;2.17;;;;;;;4.18;55.23;99291.25;4989058;28;20022;-72
2022/02/06 14:24:54;;;;;;;8.15;0.80;;;;;;;4.13;55.71;99301.78;4995525;28;20399;-74
2022/02/06 14:27:29;;;;;;;9.75;1.45;;;;;;;4.14;56.76;99300.91;4994786;28;20033;-72